sensor_id;sensor_type;location;lat;lon;timestamp;pressure;altitude;pressure_sealevel;temperature;humidity
35045;BME280;21231;48.394;34.964;2022-10-16T00:02:31;101336.66;;;0.97;100.00
35045;BME280;21231;48.394;34.964;2022-10-16T00:05:18;101340.66;;;0.95;100.00
35045;BME280;21231;48.394;34.964;2022-10-16T00:08:03;101341.72;;;0.97;100.00
35045;BME280;21231;48.394;34.964;2022-10-16T00:10:50;101342.63;;;1.05;100.00
35045;BME280;21231;48.394;34.964;2022-10-16T00:13:37;101334.13;;;0.97;100.00
35045;BME280;21231;48.394;34.964;2022-10-16T00:16:24;101334.28;;;0.98;100.00
35045;BME280;21231;48.394;34.964;2022-10-16T00:19:10;101331.94;;;1.00;100.00
35045;BME280;21231;48.394;34.964;2022-10-16T00:21:57;101337.53;;;1.05;100.00
35045;BME280;21231;48.394;34.964;2022-10-16T00:24:43;101344.59;;;1.07;100.00
35045;BME280;21231;48.394;34.964;2022-10-16T00:27:29;101343.75;;;0.92;100.00
35045;BME280;21231;48.394;34.964;2022-10-16T00:30:15;101341.56;;;0.95;100.00
35045;BME280;21231;48.394;34.964;2022-10-16T00:33:01;101347.16;;;1.00;100.00
35045;BME280;21231;48.394;34.964;2022-10-16T00:35:47;101348.63;;;0.98;100.00
35045;BME280;21231;48.394;34.964;2022-10-16T00:38:34;101349.69;;;1.00;100.00
35045;BME280;21231;48.394;34.964;2022-10-16T00:41:21;101359.94;;;0.85;100.00
35045;BME280;21231;48.394;34.964;2022-10-16T00:47:31;101356.84;;;0.81;100.00
35045;BME280;21231;48.394;34.964;2022-10-16T00:50:31;101357.25;;;0.69;100.00
35045;BME280;21231;48.394;34.964;2022-10-16T00:53:17;101357.13;;;0.60;100.00
35045;BME280;21231;48.394;34.964;2022-10-16T00:56:03;101356.56;;;0.63;100.00
35045;BME280;21231;48.394;34.964;2022-10-16T00:58:50;101359.47;;;0.66;100.00
35045;BME280;21231;48.394;34.964;2022-10-16T01:01:36;101359.66;;;0.60;100.00
35045;BME280;21231;48.394;34.964;2022-10-16T01:04:23;101362.72;;;0.65;100.00
35045;BME280;21231;48.394;34.964;2022-10-16T01:13:11;101357.41;;;0.78;100.00
35045;BME280;21231;48.394;34.964;2022-10-16T01:16:11;101362.50;;;0.71;100.00
35045;BME280;21231;48.394;34.964;2022-10-16T01:21:52;101361.53;;;0.47;100.00
35045;BME280;21231;48.394;34.964;2022-10-16T01:24:46;101359.00;;;0.32;100.00
35045;BME280;21231;48.394;34.964;2022-10-16T01:27:35;101357.19;;;0.24;100.00
35045;BME280;21231;48.394;34.964;2022-10-16T01:30:27;101358.50;;;0.13;100.00
35045;BME280;21231;48.394;34.964;2022-10-16T01:33:37;101361.22;;;0.00;100.00
35045;BME280;21231;48.394;34.964;2022-10-16T01:36:34;101354.91;;;-0.04;100.00
35045;BME280;21231;48.394;34.964;2022-10-16T01:39:29;101361.59;;;0.03;100.00
35045;BME280;21231;48.394;34.964;2022-10-16T01:42:20;101357.59;;;0.13;100.00
35045;BME280;21231;48.394;34.964;2022-10-16T01:45:08;101363.03;;;0.16;100.00
35045;BME280;21231;48.394;34.964;2022-10-16T01:47:58;101371.19;;;0.06;100.00
35045;BME280;21231;48.394;34.964;2022-10-16T01:50:53;101372.47;;;-0.05;100.00
35045;BME280;21231;48.394;34.964;2022-10-16T01:53:41;101375.69;;;-0.06;100.00
35045;BME280;21231;48.394;34.964;2022-10-16T01:56:29;101366.31;;;0.00;100.00
35045;BME280;21231;48.394;34.964;2022-10-16T01:59:18;101374.63;;;0.06;100.00
35045;BME280;21231;48.394;34.964;2022-10-16T02:02:08;101370.66;;;0.08;100.00
35045;BME280;21231;48.394;34.964;2022-10-16T02:05:03;101371.00;;;0.12;100.00
35045;BME280;21231;48.394;34.964;2022-10-16T02:07:50;101368.28;;;0.10;100.00
35045;BME280;21231;48.394;34.964;2022-10-16T02:10:37;101365.03;;;0.11;100.00
35045;BME280;21231;48.394;34.964;2022-10-16T02:13:43;101371.53;;;0.09;100.00
35045;BME280;21231;48.394;34.964;2022-10-16T02:16:49;101368.13;;;0.16;100.00
35045;BME280;21231;48.394;34.964;2022-10-16T02:19:35;101375.53;;;0.14;100.00
35045;BME280;21231;48.394;34.964;2022-10-16T02:22:30;101371.34;;;0.15;100.00
35045;BME280;21231;48.394;34.964;2022-10-16T02:25:25;101380.06;;;0.17;100.00
35045;BME280;21231;48.394;34.964;2022-10-16T02:28:15;101382.22;;;0.06;100.00
35045;BME280;21231;48.394;34.964;2022-10-16T02:31:04;101392.56;;;-0.07;100.00
35045;BME280;21231;48.394;34.964;2022-10-16T02:33:52;101382.59;;;-0.20;100.00
35045;BME280;21231;48.394;34.964;2022-10-16T02:36:41;101394.53;;;-0.26;100.00
35045;BME280;21231;48.394;34.964;2022-10-16T02:39:28;101393.63;;;-0.26;100.00
35045;BME280;21231;48.394;34.964;2022-10-16T02:42:17;101393.28;;;-0.30;100.00
35045;BME280;21231;48.394;34.964;2022-10-16T02:45:08;101392.91;;;-0.33;100.00
35045;BME280;21231;48.394;34.964;2022-10-16T02:47:54;101398.88;;;-0.25;100.00
35045;BME280;21231;48.394;34.964;2022-10-16T02:50:40;101396.34;;;-0.18;100.00
35045;BME280;21231;48.394;34.964;2022-10-16T02:53:26;101398.69;;;-0.26;100.00
35045;BME280;21231;48.394;34.964;2022-10-16T02:56:12;101396.69;;;-0.29;100.00
35045;BME280;21231;48.394;34.964;2022-10-16T02:58:58;101404.47;;;-0.35;100.00
35045;BME280;21231;48.394;34.964;2022-10-16T03:01:44;101407.38;;;-0.39;100.00
35045;BME280;21231;48.394;34.964;2022-10-16T03:04:30;101411.91;;;-0.44;100.00
35045;BME280;21231;48.394;34.964;2022-10-16T03:07:16;101414.81;;;-0.40;100.00
35045;BME280;21231;48.394;34.964;2022-10-16T03:10:02;101414.97;;;-0.39;100.00
35045;BME280;21231;48.394;34.964;2022-10-16T03:12:48;101413.69;;;-0.43;100.00
35045;BME280;21231;48.394;34.964;2022-10-16T03:15:34;101405.75;;;-0.38;100.00
35045;BME280;21231;48.394;34.964;2022-10-16T03:18:20;101409.38;;;-0.44;100.00
35045;BME280;21231;48.394;34.964;2022-10-16T03:21:07;101399.03;;;-0.52;100.00
35045;BME280;21231;48.394;34.964;2022-10-16T03:23:53;101401.72;;;-0.58;100.00
35045;BME280;21231;48.394;34.964;2022-10-16T03:26:39;101396.66;;;-0.58;100.00
35045;BME280;21231;48.394;34.964;2022-10-16T03:29:25;101396.69;;;-0.51;100.00
35045;BME280;21231;48.394;34.964;2022-10-16T03:32:11;101392.53;;;-0.36;100.00
35045;BME280;21231;48.394;34.964;2022-10-16T03:34:57;101399.03;;;-0.45;100.00
35045;BME280;21231;48.394;34.964;2022-10-16T03:37:43;101395.38;;;-0.62;100.00
35045;BME280;21231;48.394;34.964;2022-10-16T03:40:29;101395.03;;;-0.72;100.00
35045;BME280;21231;48.394;34.964;2022-10-16T03:43:17;101389.22;;;-0.71;100.00
35045;BME280;21231;48.394;34.964;2022-10-16T03:46:03;101391.19;;;-0.76;100.00
35045;BME280;21231;48.394;34.964;2022-10-16T03:48:49;101388.31;;;-0.72;100.00
35045;BME280;21231;48.394;34.964;2022-10-16T03:51:35;101381.69;;;-0.06;100.00
35045;BME280;21231;48.394;34.964;2022-10-16T03:54:21;101382.22;;;0.21;100.00
35045;BME280;21231;48.394;34.964;2022-10-16T03:57:08;101389.47;;;0.25;100.00
35045;BME280;21231;48.394;34.964;2022-10-16T03:59:54;101399.97;;;0.06;100.00
35045;BME280;21231;48.394;34.964;2022-10-16T04:02:39;101398.34;;;-0.22;100.00
35045;BME280;21231;48.394;34.964;2022-10-16T04:05:26;101395.59;;;-0.46;100.00
35045;BME280;21231;48.394;34.964;2022-10-16T04:08:12;101400.28;;;-0.56;100.00
35045;BME280;21231;48.394;34.964;2022-10-16T04:10:58;101399.91;;;-0.59;100.00
35045;BME280;21231;48.394;34.964;2022-10-16T04:13:44;101394.53;;;-0.11;100.00
35045;BME280;21231;48.394;34.964;2022-10-16T04:16:30;101405.19;;;0.37;100.00
35045;BME280;21231;48.394;34.964;2022-10-16T04:19:16;101400.91;;;0.81;100.00
35045;BME280;21231;48.394;34.964;2022-10-16T04:22:02;101410.72;;;1.16;100.00
35045;BME280;21231;48.394;34.964;2022-10-16T04:24:48;101406.13;;;1.28;100.00
35045;BME280;21231;48.394;34.964;2022-10-16T04:27:34;101410.75;;;1.47;100.00
35045;BME280;21231;48.394;34.964;2022-10-16T04:30:20;101408.47;;;1.64;100.00
35045;BME280;21231;48.394;34.964;2022-10-16T04:33:08;101411.06;;;1.81;100.00
35045;BME280;21231;48.394;34.964;2022-10-16T04:35:59;101412.59;;;1.95;100.00
35045;BME280;21231;48.394;34.964;2022-10-16T04:38:46;101410.16;;;2.03;100.00
35045;BME280;21231;48.394;34.964;2022-10-16T04:41:32;101408.78;;;2.14;100.00
35045;BME280;21231;48.394;34.964;2022-10-16T04:44:18;101416.84;;;2.50;100.00
35045;BME280;21231;48.394;34.964;2022-10-16T04:47:04;101421.66;;;3.36;100.00
35045;BME280;21231;48.394;34.964;2022-10-16T04:49:50;101413.72;;;4.34;100.00
35045;BME280;21231;48.394;34.964;2022-10-16T04:52:36;101419.22;;;4.99;100.00
35045;BME280;21231;48.394;34.964;2022-10-16T04:55:22;101412.44;;;5.26;100.00
35045;BME280;21231;48.394;34.964;2022-10-16T04:58:08;101421.59;;;5.60;100.00
35045;BME280;21231;48.394;34.964;2022-10-16T05:00:54;101423.09;;;6.03;100.00
35045;BME280;21231;48.394;34.964;2022-10-16T05:03:40;101429.34;;;6.53;100.00
35045;BME280;21231;48.394;34.964;2022-10-16T05:06:26;101426.09;;;7.11;100.00
35045;BME280;21231;48.394;34.964;2022-10-16T05:09:12;101430.81;;;7.26;100.00
35045;BME280;21231;48.394;34.964;2022-10-16T05:11:58;101433.06;;;7.42;100.00
35045;BME280;21231;48.394;34.964;2022-10-16T05:14:44;101430.69;;;7.84;100.00
35045;BME280;21231;48.394;34.964;2022-10-16T05:17:30;101426.69;;;8.07;100.00
35045;BME280;21231;48.394;34.964;2022-10-16T05:20:16;101423.63;;;8.21;100.00
35045;BME280;21231;48.394;34.964;2022-10-16T05:23:02;101439.03;;;8.11;100.00
35045;BME280;21231;48.394;34.964;2022-10-16T05:25:55;101442.56;;;7.73;100.00
35045;BME280;21231;48.394;34.964;2022-10-16T05:28:43;101438.69;;;7.19;100.00
35045;BME280;21231;48.394;34.964;2022-10-16T05:31:29;101448.50;;;7.52;100.00
35045;BME280;21231;48.394;34.964;2022-10-16T05:34:15;101446.94;;;8.03;100.00
35045;BME280;21231;48.394;34.964;2022-10-16T05:37:01;101455.53;;;7.74;100.00
35045;BME280;21231;48.394;34.964;2022-10-16T05:39:47;101459.97;;;7.37;100.00
35045;BME280;21231;48.394;34.964;2022-10-16T05:42:33;101455.63;;;7.65;100.00
35045;BME280;21231;48.394;34.964;2022-10-16T05:45:19;101446.38;;;8.37;100.00
35045;BME280;21231;48.394;34.964;2022-10-16T05:48:05;101458.22;;;8.56;100.00
35045;BME280;21231;48.394;34.964;2022-10-16T05:50:59;101452.53;;;9.22;100.00
35045;BME280;21231;48.394;34.964;2022-10-16T05:53:45;101466.19;;;9.65;100.00
35045;BME280;21231;48.394;34.964;2022-10-16T05:56:31;101463.47;;;9.96;100.00
35045;BME280;21231;48.394;34.964;2022-10-16T05:59:17;101472.03;;;10.07;100.00
35045;BME280;21231;48.394;34.964;2022-10-16T06:02:03;101474.94;;;9.99;100.00
35045;BME280;21231;48.394;34.964;2022-10-16T06:04:51;101478.41;;;10.00;100.00
35045;BME280;21231;48.394;34.964;2022-10-16T06:07:38;101479.59;;;9.93;100.00
35045;BME280;21231;48.394;34.964;2022-10-16T06:10:24;101482.09;;;9.28;100.00
35045;BME280;21231;48.394;34.964;2022-10-16T06:13:11;101487.88;;;8.42;100.00
35045;BME280;21231;48.394;34.964;2022-10-16T06:15:59;101496.72;;;7.76;100.00
35045;BME280;21231;48.394;34.964;2022-10-16T06:18:46;101496.50;;;7.34;100.00
35045;BME280;21231;48.394;34.964;2022-10-16T06:21:32;101502.47;;;7.44;100.00
35045;BME280;21231;48.394;34.964;2022-10-16T06:24:18;101503.81;;;7.59;100.00
35045;BME280;21231;48.394;34.964;2022-10-16T06:27:04;101506.28;;;7.38;100.00
35045;BME280;21231;48.394;34.964;2022-10-16T06:29:50;101503.00;;;7.31;100.00
35045;BME280;21231;48.394;34.964;2022-10-16T06:32:36;101503.34;;;7.25;100.00
35045;BME280;21231;48.394;34.964;2022-10-16T06:35:22;101499.91;;;7.44;100.00
35045;BME280;21231;48.394;34.964;2022-10-16T06:38:08;101503.28;;;8.02;100.00
35045;BME280;21231;48.394;34.964;2022-10-16T06:40:54;101502.56;;;8.13;100.00
35045;BME280;21231;48.394;34.964;2022-10-16T06:43:40;101489.53;;;8.41;100.00
35045;BME280;21231;48.394;34.964;2022-10-16T06:46:27;101497.06;;;8.90;100.00
35045;BME280;21231;48.394;34.964;2022-10-16T06:49:13;101507.69;;;8.74;100.00
35045;BME280;21231;48.394;34.964;2022-10-16T06:52:06;101502.06;;;8.68;100.00
35045;BME280;21231;48.394;34.964;2022-10-16T06:54:52;101491.50;;;9.17;100.00
35045;BME280;21231;48.394;34.964;2022-10-16T06:57:38;101500.16;;;10.26;100.00
35045;BME280;21231;48.394;34.964;2022-10-16T07:00:24;101497.53;;;10.81;100.00
35045;BME280;21231;48.394;34.964;2022-10-16T07:03:09;101489.31;;;11.45;100.00
35045;BME280;21231;48.394;34.964;2022-10-16T07:05:55;101491.13;;;11.58;100.00
35045;BME280;21231;48.394;34.964;2022-10-16T07:08:43;101491.53;;;12.00;100.00
35045;BME280;21231;48.394;34.964;2022-10-16T07:11:29;101487.63;;;12.43;100.00
35045;BME280;21231;48.394;34.964;2022-10-16T07:14:17;101486.88;;;12.57;100.00
35045;BME280;21231;48.394;34.964;2022-10-16T07:17:04;101491.09;;;12.06;100.00
35045;BME280;21231;48.394;34.964;2022-10-16T07:19:50;101500.00;;;11.86;100.00
35045;BME280;21231;48.394;34.964;2022-10-16T07:22:38;101500.31;;;11.42;100.00
35045;BME280;21231;48.394;34.964;2022-10-16T07:25:24;101506.47;;;10.74;100.00
35045;BME280;21231;48.394;34.964;2022-10-16T07:28:10;101504.72;;;10.85;100.00
35045;BME280;21231;48.394;34.964;2022-10-16T07:31:00;101518.84;;;10.90;100.00
35045;BME280;21231;48.394;34.964;2022-10-16T07:33:47;101514.41;;;10.43;100.00
35045;BME280;21231;48.394;34.964;2022-10-16T07:36:34;101508.97;;;10.50;100.00
35045;BME280;21231;48.394;34.964;2022-10-16T07:39:20;101513.03;;;10.93;100.00
35045;BME280;21231;48.394;34.964;2022-10-16T07:42:06;101517.06;;;11.83;100.00
35045;BME280;21231;48.394;34.964;2022-10-16T07:44:53;101516.28;;;11.96;100.00
35045;BME280;21231;48.394;34.964;2022-10-16T07:47:39;101509.50;;;11.99;100.00
35045;BME280;21231;48.394;34.964;2022-10-16T07:50:25;101507.97;;;12.38;100.00
35045;BME280;21231;48.394;34.964;2022-10-16T07:53:11;101503.53;;;12.12;100.00
35045;BME280;21231;48.394;34.964;2022-10-16T07:56:02;101505.84;;;12.44;100.00
35045;BME280;21231;48.394;34.964;2022-10-16T07:58:50;101497.03;;;12.05;100.00
35045;BME280;21231;48.394;34.964;2022-10-16T08:01:36;101502.16;;;12.66;100.00
35045;BME280;21231;48.394;34.964;2022-10-16T08:04:23;101493.38;;;12.90;100.00
35045;BME280;21231;48.394;34.964;2022-10-16T08:07:08;101493.66;;;13.47;100.00
35045;BME280;21231;48.394;34.964;2022-10-16T08:09:55;101494.16;;;13.28;100.00
35045;BME280;21231;48.394;34.964;2022-10-16T08:12:42;101493.28;;;13.41;100.00
35045;BME280;21231;48.394;34.964;2022-10-16T08:15:27;101494.03;;;13.12;100.00
35045;BME280;21231;48.394;34.964;2022-10-16T08:18:14;101484.75;;;13.03;100.00
35045;BME280;21231;48.394;34.964;2022-10-16T08:21:01;101472.03;;;13.06;100.00
35045;BME280;21231;48.394;34.964;2022-10-16T08:23:48;101475.53;;;13.20;100.00
35045;BME280;21231;48.394;34.964;2022-10-16T08:26:42;101482.44;;;13.60;100.00
35045;BME280;21231;48.394;34.964;2022-10-16T08:29:28;101485.31;;;13.91;100.00
35045;BME280;21231;48.394;34.964;2022-10-16T08:32:14;101479.94;;;14.30;100.00
35045;BME280;21231;48.394;34.964;2022-10-16T08:35:00;101487.31;;;14.38;100.00
35045;BME280;21231;48.394;34.964;2022-10-16T08:37:46;101484.78;;;14.68;100.00
35045;BME280;21231;48.394;34.964;2022-10-16T08:40:34;101481.41;;;14.12;100.00
35045;BME280;21231;48.394;34.964;2022-10-16T08:49:21;101484.13;;;13.32;100.00
35045;BME280;21231;48.394;34.964;2022-10-16T08:52:12;101486.19;;;13.78;100.00
35045;BME280;21231;48.394;34.964;2022-10-16T08:54:59;101476.34;;;13.59;100.00
35045;BME280;21231;48.394;34.964;2022-10-16T08:57:45;101463.06;;;13.00;100.00
35045;BME280;21231;48.394;34.964;2022-10-16T09:00:32;101486.38;;;12.24;100.00
35045;BME280;21231;48.394;34.964;2022-10-16T09:18:20;101473.84;;;11.33;100.00
35045;BME280;21231;48.394;34.964;2022-10-16T09:21:28;101489.09;;;11.30;100.00
35045;BME280;21231;48.394;34.964;2022-10-16T09:24:17;101478.56;;;11.39;100.00
35045;BME280;21231;48.394;34.964;2022-10-16T09:27:04;101470.94;;;11.52;100.00
35045;BME280;21231;48.394;34.964;2022-10-16T09:29:53;101469.25;;;11.53;100.00
35045;BME280;21231;48.394;34.964;2022-10-16T09:32:46;101471.59;;;11.62;100.00
35045;BME280;21231;48.394;34.964;2022-10-16T09:35:37;101479.25;;;11.72;100.00
35045;BME280;21231;48.394;34.964;2022-10-16T09:38:26;101481.16;;;11.75;100.00
35045;BME280;21231;48.394;34.964;2022-10-16T09:41:21;101471.25;;;11.69;100.00
35045;BME280;21231;48.394;34.964;2022-10-16T09:44:29;101472.16;;;11.69;100.00
35045;BME280;21231;48.394;34.964;2022-10-16T09:47:18;101472.50;;;11.62;100.00
35045;BME280;21231;48.394;34.964;2022-10-16T09:50:28;101470.47;;;11.70;100.00
35045;BME280;21231;48.394;34.964;2022-10-16T09:53:15;101463.16;;;11.88;100.00
35045;BME280;21231;48.394;34.964;2022-10-16T09:56:03;101456.31;;;11.89;100.00
35045;BME280;21231;48.394;34.964;2022-10-16T09:59:08;101459.84;;;12.03;100.00
35045;BME280;21231;48.394;34.964;2022-10-16T10:01:55;101456.13;;;12.11;100.00
35045;BME280;21231;48.394;34.964;2022-10-16T10:04:48;101444.47;;;12.04;100.00
35045;BME280;21231;48.394;34.964;2022-10-16T10:07:37;101447.50;;;12.11;100.00
35045;BME280;21231;48.394;34.964;2022-10-16T10:10:27;101443.75;;;12.31;100.00
35045;BME280;21231;48.394;34.964;2022-10-16T10:13:20;101442.84;;;12.30;100.00
35045;BME280;21231;48.394;34.964;2022-10-16T10:16:06;101438.19;;;12.38;100.00
35045;BME280;21231;48.394;34.964;2022-10-16T10:19:01;101430.44;;;12.38;100.00
35045;BME280;21231;48.394;34.964;2022-10-16T10:21:47;101433.56;;;12.46;100.00
35045;BME280;21231;48.394;34.964;2022-10-16T10:24:34;101424.22;;;12.48;100.00
35045;BME280;21231;48.394;34.964;2022-10-16T10:27:21;101429.97;;;12.44;100.00
35045;BME280;21231;48.394;34.964;2022-10-16T10:36:32;101428.50;;;12.47;100.00
35045;BME280;21231;48.394;34.964;2022-10-16T10:39:25;101414.25;;;12.41;100.00
35045;BME280;21231;48.394;34.964;2022-10-16T10:42:28;101415.75;;;12.51;100.00
35045;BME280;21231;48.394;34.964;2022-10-16T10:45:36;101424.25;;;12.61;100.00
35045;BME280;21231;48.394;34.964;2022-10-16T10:54:49;101419.09;;;12.75;100.00
35045;BME280;21231;48.394;34.964;2022-10-16T11:06:50;101416.44;;;12.73;100.00
35045;BME280;21231;48.394;34.964;2022-10-16T11:09:43;101424.28;;;12.75;100.00
35045;BME280;21231;48.394;34.964;2022-10-16T11:12:38;101404.84;;;12.94;100.00
35045;BME280;21231;48.394;34.964;2022-10-16T11:15:32;101399.06;;;12.84;100.00
35045;BME280;21231;48.394;34.964;2022-10-16T11:18:24;101416.66;;;12.90;100.00
35045;BME280;21231;48.394;34.964;2022-10-16T11:21:14;101414.28;;;12.93;100.00
35045;BME280;21231;48.394;34.964;2022-10-16T11:24:22;101409.41;;;12.84;100.00
35045;BME280;21231;48.394;34.964;2022-10-16T11:27:14;101397.56;;;12.88;100.00
35045;BME280;21231;48.394;34.964;2022-10-16T11:30:04;101410.88;;;12.94;100.00
35045;BME280;21231;48.394;34.964;2022-10-16T11:33:10;101408.22;;;12.93;100.00
35045;BME280;21231;48.394;34.964;2022-10-16T11:42:41;101414.69;;;13.13;100.00
35045;BME280;21231;48.394;34.964;2022-10-16T11:45:32;101413.41;;;13.06;100.00
35045;BME280;21231;48.394;34.964;2022-10-16T11:51:14;101406.22;;;13.02;100.00
35045;BME280;21231;48.394;34.964;2022-10-16T11:56:57;101406.03;;;13.12;100.00
35045;BME280;21231;48.394;34.964;2022-10-16T12:08:51;101405.31;;;13.02;100.00
35045;BME280;21231;48.394;34.964;2022-10-16T12:11:39;101405.81;;;13.09;100.00
35045;BME280;21231;48.394;34.964;2022-10-16T12:17:36;101418.00;;;13.10;100.00
35045;BME280;21231;48.394;34.964;2022-10-16T12:20:27;101418.28;;;13.15;100.00
35045;BME280;21231;48.394;34.964;2022-10-16T12:23:20;101416.09;;;13.21;100.00
35045;BME280;21231;48.394;34.964;2022-10-16T12:26:08;101411.41;;;13.16;100.00
35045;BME280;21231;48.394;34.964;2022-10-16T12:28:55;101410.41;;;13.13;100.00
35045;BME280;21231;48.394;34.964;2022-10-16T12:31:45;101413.59;;;13.09;100.00
35045;BME280;21231;48.394;34.964;2022-10-16T12:34:43;101405.66;;;13.06;100.00
35045;BME280;21231;48.394;34.964;2022-10-16T12:37:35;101411.81;;;13.08;100.00
35045;BME280;21231;48.394;34.964;2022-10-16T12:40:32;101404.63;;;13.04;100.00
35045;BME280;21231;48.394;34.964;2022-10-16T12:43:28;101406.63;;;13.08;100.00
35045;BME280;21231;48.394;34.964;2022-10-16T12:51:59;101404.03;;;13.08;100.00
35045;BME280;21231;48.394;34.964;2022-10-16T12:54:44;101404.03;;;13.08;100.00
35045;BME280;21231;48.394;34.964;2022-10-16T13:00:54;101407.44;;;13.07;100.00
35045;BME280;21231;48.394;34.964;2022-10-16T13:09:19;101413.09;;;13.02;100.00
35045;BME280;21231;48.394;34.964;2022-10-16T13:15:44;101421.88;;;13.04;100.00
35045;BME280;21231;48.394;34.964;2022-10-16T13:27:49;101422.94;;;12.94;100.00
35045;BME280;21231;48.394;34.964;2022-10-16T13:30:44;101426.00;;;12.88;100.00
35045;BME280;21231;48.394;34.964;2022-10-16T13:33:39;101427.28;;;12.81;100.00
35045;BME280;21231;48.394;34.964;2022-10-16T13:36:28;101423.63;;;12.78;100.00
35045;BME280;21231;48.394;34.964;2022-10-16T13:39:27;101424.97;;;12.72;100.00
35045;BME280;21231;48.394;34.964;2022-10-16T13:42:18;101426.47;;;12.69;100.00
35045;BME280;21231;48.394;34.964;2022-10-16T13:45:23;101420.88;;;12.63;100.00
35045;BME280;21231;48.394;34.964;2022-10-16T13:48:10;101428.31;;;12.58;100.00
35045;BME280;21231;48.394;34.964;2022-10-16T13:51:04;101435.88;;;12.55;100.00
35045;BME280;21231;48.394;34.964;2022-10-16T13:53:50;101439.25;;;12.54;100.00
35045;BME280;21231;48.394;34.964;2022-10-16T13:56:38;101436.25;;;12.47;100.00
35045;BME280;21231;48.394;34.964;2022-10-16T13:59:34;101439.09;;;12.39;100.00
35045;BME280;21231;48.394;34.964;2022-10-16T14:02:33;101447.13;;;12.30;100.00
35045;BME280;21231;48.394;34.964;2022-10-16T14:05:21;101447.72;;;12.26;100.00
35045;BME280;21231;48.394;34.964;2022-10-16T14:08:10;101437.16;;;12.11;100.00
35045;BME280;21231;48.394;34.964;2022-10-16T14:10:59;101457.28;;;12.03;100.00
35045;BME280;21231;48.394;34.964;2022-10-16T14:13:47;101457.16;;;12.01;100.00
35045;BME280;21231;48.394;34.964;2022-10-16T14:16:57;101462.31;;;12.01;100.00
35045;BME280;21231;48.394;34.964;2022-10-16T14:19:48;101460.78;;;11.91;100.00
35045;BME280;21231;48.394;34.964;2022-10-16T14:22:43;101464.16;;;11.78;100.00
35045;BME280;21231;48.394;34.964;2022-10-16T14:25:31;101459.03;;;11.66;100.00
35045;BME280;21231;48.394;34.964;2022-10-16T14:28:21;101463.53;;;11.57;100.00
35045;BME280;21231;48.394;34.964;2022-10-16T14:34:36;101469.91;;;11.38;100.00
35045;BME280;21231;48.394;34.964;2022-10-16T14:37:28;101465.44;;;11.36;100.00
35045;BME280;21231;48.394;34.964;2022-10-16T14:40:15;101460.94;;;11.21;100.00
35045;BME280;21231;48.394;34.964;2022-10-16T14:43:02;101470.88;;;10.93;100.00
35045;BME280;21231;48.394;34.964;2022-10-16T14:45:53;101478.47;;;10.79;100.00
35045;BME280;21231;48.394;34.964;2022-10-16T14:48:45;101481.44;;;10.61;100.00
35045;BME280;21231;48.394;34.964;2022-10-16T14:51:32;101486.06;;;10.43;100.00
35045;BME280;21231;48.394;34.964;2022-10-16T14:54:19;101486.88;;;10.32;100.00
35045;BME280;21231;48.394;34.964;2022-10-16T14:57:05;101494.94;;;10.14;100.00
35045;BME280;21231;48.394;34.964;2022-10-16T15:00:03;101491.81;;;9.96;100.00
35045;BME280;21231;48.394;34.964;2022-10-16T15:02:49;101499.72;;;9.87;100.00
35045;BME280;21231;48.394;34.964;2022-10-16T15:05:36;101507.47;;;9.77;100.00
35045;BME280;21231;48.394;34.964;2022-10-16T15:08:22;101510.59;;;9.62;100.00
35045;BME280;21231;48.394;34.964;2022-10-16T15:11:16;101512.41;;;9.53;100.00
35045;BME280;21231;48.394;34.964;2022-10-16T15:14:03;101522.22;;;9.46;100.00
35045;BME280;21231;48.394;34.964;2022-10-16T15:16:50;101529.44;;;9.40;100.00
35045;BME280;21231;48.394;34.964;2022-10-16T15:19:36;101527.88;;;9.32;100.00
35045;BME280;21231;48.394;34.964;2022-10-16T15:22:23;101537.69;;;9.26;100.00
35045;BME280;21231;48.394;34.964;2022-10-16T15:28:17;101549.13;;;9.08;100.00
35045;BME280;21231;48.394;34.964;2022-10-16T15:31:04;101563.13;;;9.02;100.00
35045;BME280;21231;48.394;34.964;2022-10-16T15:33:52;101559.78;;;8.92;100.00
35045;BME280;21231;48.394;34.964;2022-10-16T15:36:39;101563.38;;;8.84;100.00
35045;BME280;21231;48.394;34.964;2022-10-16T15:39:26;101570.31;;;8.85;100.00
35045;BME280;21231;48.394;34.964;2022-10-16T15:42:11;101579.72;;;8.85;100.00
35045;BME280;21231;48.394;34.964;2022-10-16T15:44:57;101582.91;;;8.82;100.00
35045;BME280;21231;48.394;34.964;2022-10-16T15:47:43;101592.28;;;8.81;100.00
35045;BME280;21231;48.394;34.964;2022-10-16T15:50:31;101594.34;;;8.75;100.00
35045;BME280;21231;48.394;34.964;2022-10-16T15:53:17;101594.34;;;8.75;100.00
35045;BME280;21231;48.394;34.964;2022-10-16T15:56:05;101593.31;;;8.73;100.00
35045;BME280;21231;48.394;34.964;2022-10-16T15:58:52;101596.00;;;8.75;100.00
35045;BME280;21231;48.394;34.964;2022-10-16T16:01:39;101594.22;;;8.74;100.00
35045;BME280;21231;48.394;34.964;2022-10-16T16:04:25;101593.66;;;8.67;100.00
35045;BME280;21231;48.394;34.964;2022-10-16T16:07:32;101601.75;;;8.62;100.00
35045;BME280;21231;48.394;34.964;2022-10-16T16:10:20;101606.50;;;8.67;100.00
35045;BME280;21231;48.394;34.964;2022-10-16T16:13:06;101603.72;;;8.75;100.00
35045;BME280;21231;48.394;34.964;2022-10-16T16:15:52;101594.44;;;8.77;100.00
35045;BME280;21231;48.394;34.964;2022-10-16T16:18:39;101602.47;;;8.90;100.00
35045;BME280;21231;48.394;34.964;2022-10-16T16:21:26;101586.28;;;8.91;100.00